sensor_id;sensor_type;location;lat;lon;timestamp;P1;durP1;ratioP1;P2;durP2;ratioP2
27895;SDS011;15241;48.374;10.876;2023-02-23T00:04:08;16.12;;;11.48;;
27895;SDS011;15241;48.374;10.876;2023-02-23T00:09:07;19.92;;;12.55;;
27895;SDS011;15241;48.374;10.876;2023-02-23T00:14:06;18.35;;;12.70;;
27895;SDS011;15241;48.374;10.876;2023-02-23T00:19:05;18.55;;;12.18;;
27895;SDS011;15241;48.374;10.876;2023-02-23T00:24:05;18.10;;;11.90;;
27895;SDS011;15241;48.374;10.876;2023-02-23T00:29:06;18.77;;;13.10;;
27895;SDS011;15241;48.374;10.876;2023-02-23T00:34:06;19.32;;;12.33;;
27895;SDS011;15241;48.374;10.876;2023-02-23T00:39:09;19.02;;;12.10;;
27895;SDS011;15241;48.374;10.876;2023-02-23T00:44:08;17.85;;;12.25;;
27895;SDS011;15241;48.374;10.876;2023-02-23T00:49:08;16.57;;;12.43;;
27895;SDS011;15241;48.374;10.876;2023-02-23T00:54:09;16.73;;;11.90;;
27895;SDS011;15241;48.374;10.876;2023-02-23T00:59:10;20.75;;;12.43;;
27895;SDS011;15241;48.374;10.876;2023-02-23T01:04:10;16.12;;;12.25;;
27895;SDS011;15241;48.374;10.876;2023-02-23T01:09:10;22.77;;;13.43;;
27895;SDS011;15241;48.374;10.876;2023-02-23T01:14:11;18.40;;;12.63;;
27895;SDS011;15241;48.374;10.876;2023-02-23T01:19:10;19.12;;;12.50;;
27895;SDS011;15241;48.374;10.876;2023-02-23T01:24:09;20.35;;;12.53;;
27895;SDS011;15241;48.374;10.876;2023-02-23T01:29:09;18.73;;;13.05;;
27895;SDS011;15241;48.374;10.876;2023-02-23T01:34:09;20.10;;;13.55;;
27895;SDS011;15241;48.374;10.876;2023-02-23T01:39:10;19.40;;;12.60;;
27895;SDS011;15241;48.374;10.876;2023-02-23T01:55:21;21.93;;;13.08;;
27895;SDS011;15241;48.374;10.876;2023-02-23T02:00:22;18.23;;;13.40;;
27895;SDS011;15241;48.374;10.876;2023-02-23T02:10:40;18.82;;;13.83;;
27895;SDS011;15241;48.374;10.876;2023-02-23T02:15:42;21.00;;;12.70;;
27895;SDS011;15241;48.374;10.876;2023-02-23T02:26:15;16.50;;;12.33;;
27895;SDS011;15241;48.374;10.876;2023-02-23T02:31:23;18.32;;;11.80;;
27895;SDS011;15241;48.374;10.876;2023-02-23T02:36:51;17.35;;;12.13;;
27895;SDS011;15241;48.374;10.876;2023-02-23T02:42:08;18.60;;;13.18;;
27895;SDS011;15241;48.374;10.876;2023-02-23T02:47:10;19.42;;;13.08;;
27895;SDS011;15241;48.374;10.876;2023-02-23T02:52:14;17.10;;;12.10;;
27895;SDS011;15241;48.374;10.876;2023-02-23T02:57:15;18.12;;;12.47;;
27895;SDS011;15241;48.374;10.876;2023-02-23T03:02:17;19.65;;;13.18;;
27895;SDS011;15241;48.374;10.876;2023-02-23T03:07:20;17.52;;;12.20;;
27895;SDS011;15241;48.374;10.876;2023-02-23T03:12:24;21.57;;;12.55;;
27895;SDS011;15241;48.374;10.876;2023-02-23T03:22:27;17.87;;;12.58;;
27895;SDS011;15241;48.374;10.876;2023-02-23T03:27:29;19.50;;;13.30;;
27895;SDS011;15241;48.374;10.876;2023-02-23T03:32:32;19.83;;;13.80;;
27895;SDS011;15241;48.374;10.876;2023-02-23T03:37:40;18.55;;;12.58;;
27895;SDS011;15241;48.374;10.876;2023-02-23T03:42:42;19.60;;;12.98;;
27895;SDS011;15241;48.374;10.876;2023-02-23T03:47:43;18.23;;;12.65;;
27895;SDS011;15241;48.374;10.876;2023-02-23T03:52:44;23.95;;;13.58;;
27895;SDS011;15241;48.374;10.876;2023-02-23T03:57:46;23.25;;;13.90;;
27895;SDS011;15241;48.374;10.876;2023-02-23T04:02:48;22.13;;;14.23;;
27895;SDS011;15241;48.374;10.876;2023-02-23T04:07:48;22.32;;;14.45;;
27895;SDS011;15241;48.374;10.876;2023-02-23T04:12:52;24.35;;;15.05;;
27895;SDS011;15241;48.374;10.876;2023-02-23T04:17:53;28.67;;;15.18;;
27895;SDS011;15241;48.374;10.876;2023-02-23T04:22:52;22.85;;;13.65;;
27895;SDS011;15241;48.374;10.876;2023-02-23T04:27:51;25.50;;;15.03;;
27895;SDS011;15241;48.374;10.876;2023-02-23T04:32:50;22.00;;;14.18;;
27895;SDS011;15241;48.374;10.876;2023-02-23T04:37:49;21.82;;;14.78;;
27895;SDS011;15241;48.374;10.876;2023-02-23T04:42:48;22.13;;;14.10;;
27895;SDS011;15241;48.374;10.876;2023-02-23T04:47:47;21.15;;;14.73;;
27895;SDS011;15241;48.374;10.876;2023-02-23T04:52:47;21.17;;;14.65;;
27895;SDS011;15241;48.374;10.876;2023-02-23T04:57:48;21.73;;;14.70;;
27895;SDS011;15241;48.374;10.876;2023-02-23T05:02:47;21.37;;;14.28;;
27895;SDS011;15241;48.374;10.876;2023-02-23T05:07:46;21.20;;;14.07;;
27895;SDS011;15241;48.374;10.876;2023-02-23T05:12:45;21.77;;;14.75;;
27895;SDS011;15241;48.374;10.876;2023-02-23T05:17:45;22.77;;;13.75;;
27895;SDS011;15241;48.374;10.876;2023-02-23T05:22:43;21.97;;;14.25;;
27895;SDS011;15241;48.374;10.876;2023-02-23T05:27:42;22.87;;;14.63;;
27895;SDS011;15241;48.374;10.876;2023-02-23T05:32:41;23.02;;;15.00;;
27895;SDS011;15241;48.374;10.876;2023-02-23T05:37:40;21.75;;;14.95;;
27895;SDS011;15241;48.374;10.876;2023-02-23T05:42:39;25.40;;;14.43;;
27895;SDS011;15241;48.374;10.876;2023-02-23T05:47:40;24.15;;;14.07;;
27895;SDS011;15241;48.374;10.876;2023-02-23T05:52:39;21.95;;;14.60;;
27895;SDS011;15241;48.374;10.876;2023-02-23T05:57:39;26.02;;;16.05;;
27895;SDS011;15241;48.374;10.876;2023-02-23T06:02:38;25.95;;;15.15;;
27895;SDS011;15241;48.374;10.876;2023-02-23T06:07:37;29.12;;;18.90;;
27895;SDS011;15241;48.374;10.876;2023-02-23T06:12:36;25.25;;;15.55;;
27895;SDS011;15241;48.374;10.876;2023-02-23T06:17:35;21.95;;;15.25;;
27895;SDS011;15241;48.374;10.876;2023-02-23T06:22:34;25.72;;;14.95;;
27895;SDS011;15241;48.374;10.876;2023-02-23T06:27:33;24.65;;;16.05;;
27895;SDS011;15241;48.374;10.876;2023-02-23T06:32:31;26.52;;;17.37;;
27895;SDS011;15241;48.374;10.876;2023-02-23T06:37:30;22.10;;;16.15;;
27895;SDS011;15241;48.374;10.876;2023-02-23T06:42:29;23.38;;;16.10;;
27895;SDS011;15241;48.374;10.876;2023-02-23T06:47:28;26.02;;;17.40;;
27895;SDS011;15241;48.374;10.876;2023-02-23T06:52:27;22.73;;;15.45;;
27895;SDS011;15241;48.374;10.876;2023-02-23T06:57:26;29.60;;;17.05;;
27895;SDS011;15241;48.374;10.876;2023-02-23T07:02:25;29.52;;;17.52;;
27895;SDS011;15241;48.374;10.876;2023-02-23T07:07:25;28.60;;;17.30;;
27895;SDS011;15241;48.374;10.876;2023-02-23T07:12:23;28.42;;;18.45;;
27895;SDS011;15241;48.374;10.876;2023-02-23T07:17:22;24.27;;;16.50;;
27895;SDS011;15241;48.374;10.876;2023-02-23T07:22:21;28.17;;;15.85;;
27895;SDS011;15241;48.374;10.876;2023-02-23T07:27:20;26.57;;;17.17;;
27895;SDS011;15241;48.374;10.876;2023-02-23T07:32:19;25.40;;;16.73;;
27895;SDS011;15241;48.374;10.876;2023-02-23T07:37:18;28.45;;;17.62;;
27895;SDS011;15241;48.374;10.876;2023-02-23T07:42:17;27.02;;;17.70;;
27895;SDS011;15241;48.374;10.876;2023-02-23T07:47:16;23.83;;;17.12;;
27895;SDS011;15241;48.374;10.876;2023-02-23T07:52:16;28.75;;;18.20;;
27895;SDS011;15241;48.374;10.876;2023-02-23T07:57:15;27.13;;;16.60;;
27895;SDS011;15241;48.374;10.876;2023-02-23T08:02:14;28.87;;;18.10;;
27895;SDS011;15241;48.374;10.876;2023-02-23T08:07:13;25.85;;;17.15;;
27895;SDS011;15241;48.374;10.876;2023-02-23T08:12:12;27.32;;;17.15;;
27895;SDS011;15241;48.374;10.876;2023-02-23T08:22:17;31.37;;;18.07;;
27895;SDS011;15241;48.374;10.876;2023-02-23T08:27:16;28.80;;;17.35;;
27895;SDS011;15241;48.374;10.876;2023-02-23T08:32:16;22.45;;;15.48;;
27895;SDS011;15241;48.374;10.876;2023-02-23T08:37:15;23.00;;;15.28;;
27895;SDS011;15241;48.374;10.876;2023-02-23T08:42:14;18.95;;;14.18;;
27895;SDS011;15241;48.374;10.876;2023-02-23T08:47:13;20.88;;;14.40;;
27895;SDS011;15241;48.374;10.876;2023-02-23T08:52:20;20.30;;;14.25;;
27895;SDS011;15241;48.374;10.876;2023-02-23T08:57:19;23.67;;;14.73;;
27895;SDS011;15241;48.374;10.876;2023-02-23T09:02:18;20.17;;;14.35;;
27895;SDS011;15241;48.374;10.876;2023-02-23T09:07:17;25.48;;;16.30;;
27895;SDS011;15241;48.374;10.876;2023-02-23T09:12:17;18.65;;;13.55;;
27895;SDS011;15241;48.374;10.876;2023-02-23T09:17:16;21.45;;;14.65;;
27895;SDS011;15241;48.374;10.876;2023-02-23T09:22:15;20.65;;;13.65;;
27895;SDS011;15241;48.374;10.876;2023-02-23T09:27:14;20.77;;;14.23;;
27895;SDS011;15241;48.374;10.876;2023-02-23T09:32:23;18.20;;;14.75;;
27895;SDS011;15241;48.374;10.876;2023-02-23T09:37:22;25.72;;;17.60;;
27895;SDS011;15241;48.374;10.876;2023-02-23T09:42:25;22.17;;;14.13;;
27895;SDS011;15241;48.374;10.876;2023-02-23T09:47:35;15.98;;;11.95;;
27895;SDS011;15241;48.374;10.876;2023-02-23T09:52:37;21.80;;;13.30;;
27895;SDS011;15241;48.374;10.876;2023-02-23T09:57:38;18.35;;;13.83;;
27895;SDS011;15241;48.374;10.876;2023-02-23T10:02:41;20.45;;;13.85;;
27895;SDS011;15241;48.374;10.876;2023-02-23T10:07:44;19.95;;;14.43;;
27895;SDS011;15241;48.374;10.876;2023-02-23T10:12:46;17.48;;;14.18;;
27895;SDS011;15241;48.374;10.876;2023-02-23T10:17:51;15.18;;;12.25;;
27895;SDS011;15241;48.374;10.876;2023-02-23T10:22:53;18.27;;;13.25;;
27895;SDS011;15241;48.374;10.876;2023-02-23T10:27:54;21.15;;;13.88;;
27895;SDS011;15241;48.374;10.876;2023-02-23T10:32:56;18.37;;;12.73;;
27895;SDS011;15241;48.374;10.876;2023-02-23T10:37:58;15.68;;;12.37;;
27895;SDS011;15241;48.374;10.876;2023-02-23T10:42:59;20.08;;;13.30;;
27895;SDS011;15241;48.374;10.876;2023-02-23T10:47:59;18.57;;;13.20;;
27895;SDS011;15241;48.374;10.876;2023-02-23T10:53:03;19.77;;;13.62;;
27895;SDS011;15241;48.374;10.876;2023-02-23T10:58:09;20.43;;;12.68;;
27895;SDS011;15241;48.374;10.876;2023-02-23T11:03:16;14.78;;;11.60;;
27895;SDS011;15241;48.374;10.876;2023-02-23T11:08:21;18.60;;;13.55;;
27895;SDS011;15241;48.374;10.876;2023-02-23T11:13:23;14.05;;;10.45;;
27895;SDS011;15241;48.374;10.876;2023-02-23T11:18:31;12.55;;;9.78;;
27895;SDS011;15241;48.374;10.876;2023-02-23T11:23:30;14.15;;;10.45;;
27895;SDS011;15241;48.374;10.876;2023-02-23T11:28:32;12.60;;;9.60;;
27895;SDS011;15241;48.374;10.876;2023-02-23T11:33:34;11.95;;;9.30;;
27895;SDS011;15241;48.374;10.876;2023-02-23T11:38:34;12.25;;;8.60;;
27895;SDS011;15241;48.374;10.876;2023-02-23T11:43:43;8.68;;;7.37;;
27895;SDS011;15241;48.374;10.876;2023-02-23T11:48:47;11.00;;;8.25;;
27895;SDS011;15241;48.374;10.876;2023-02-23T11:53:49;10.50;;;8.45;;
27895;SDS011;15241;48.374;10.876;2023-02-23T11:58:48;9.33;;;8.10;;
27895;SDS011;15241;48.374;10.876;2023-02-23T12:03:50;9.15;;;7.45;;
27895;SDS011;15241;48.374;10.876;2023-02-23T12:08:50;10.18;;;6.60;;
27895;SDS011;15241;48.374;10.876;2023-02-23T12:13:51;8.85;;;6.55;;
27895;SDS011;15241;48.374;10.876;2023-02-23T12:18:54;10.90;;;6.80;;
27895;SDS011;15241;48.374;10.876;2023-02-23T12:23:58;10.00;;;6.03;;
27895;SDS011;15241;48.374;10.876;2023-02-23T12:29:14;7.75;;;5.65;;
27895;SDS011;15241;48.374;10.876;2023-02-23T12:34:16;8.08;;;5.58;;
27895;SDS011;15241;48.374;10.876;2023-02-23T12:39:20;11.53;;;6.22;;
27895;SDS011;15241;48.374;10.876;2023-02-23T12:44:24;9.58;;;6.55;;
27895;SDS011;15241;48.374;10.876;2023-02-23T12:49:29;7.80;;;6.05;;
27895;SDS011;15241;48.374;10.876;2023-02-23T12:54:38;13.13;;;6.58;;
27895;SDS011;15241;48.374;10.876;2023-02-23T12:59:50;10.80;;;5.60;;
27895;SDS011;15241;48.374;10.876;2023-02-23T13:05:08;9.55;;;6.83;;
27895;SDS011;15241;48.374;10.876;2023-02-23T13:10:19;9.38;;;6.45;;
27895;SDS011;15241;48.374;10.876;2023-02-23T13:15:22;9.13;;;6.05;;
27895;SDS011;15241;48.374;10.876;2023-02-23T13:20:27;12.70;;;5.60;;
27895;SDS011;15241;48.374;10.876;2023-02-23T13:25:30;8.13;;;6.03;;
27895;SDS011;15241;48.374;10.876;2023-02-23T13:30:32;9.25;;;6.40;;
27895;SDS011;15241;48.374;10.876;2023-02-23T13:35:32;11.10;;;6.28;;
27895;SDS011;15241;48.374;10.876;2023-02-23T13:40:34;8.43;;;5.75;;
27895;SDS011;15241;48.374;10.876;2023-02-23T13:45:41;7.28;;;5.25;;
27895;SDS011;15241;48.374;10.876;2023-02-23T13:50:50;8.13;;;5.37;;
27895;SDS011;15241;48.374;10.876;2023-02-23T13:55:48;6.23;;;4.80;;
27895;SDS011;15241;48.374;10.876;2023-02-23T14:00:53;7.28;;;5.03;;
27895;SDS011;15241;48.374;10.876;2023-02-23T14:06:01;8.05;;;5.05;;
27895;SDS011;15241;48.374;10.876;2023-02-23T14:11:02;9.80;;;4.12;;
27895;SDS011;15241;48.374;10.876;2023-02-23T14:16:10;9.05;;;4.30;;
27895;SDS011;15241;48.374;10.876;2023-02-23T14:21:15;5.42;;;4.30;;
27895;SDS011;15241;48.374;10.876;2023-02-23T14:26:17;6.17;;;5.00;;
27895;SDS011;15241;48.374;10.876;2023-02-23T14:31:34;5.60;;;4.62;;
27895;SDS011;15241;48.374;10.876;2023-02-23T14:36:36;5.15;;;4.28;;
27895;SDS011;15241;48.374;10.876;2023-02-23T14:41:42;7.10;;;5.12;;
27895;SDS011;15241;48.374;10.876;2023-02-23T14:46:49;9.15;;;4.83;;
27895;SDS011;15241;48.374;10.876;2023-02-23T14:51:55;7.30;;;4.20;;
27895;SDS011;15241;48.374;10.876;2023-02-23T14:56:57;5.28;;;3.75;;
27895;SDS011;15241;48.374;10.876;2023-02-23T15:01:58;5.70;;;4.25;;
27895;SDS011;15241;48.374;10.876;2023-02-23T15:06:58;7.03;;;3.80;;
27895;SDS011;15241;48.374;10.876;2023-02-23T15:11:59;5.30;;;4.10;;
27895;SDS011;15241;48.374;10.876;2023-02-23T15:17:01;5.70;;;3.65;;
27895;SDS011;15241;48.374;10.876;2023-02-23T15:22:01;8.85;;;4.45;;
27895;SDS011;15241;48.374;10.876;2023-02-23T15:27:02;5.80;;;3.90;;
27895;SDS011;15241;48.374;10.876;2023-02-23T15:32:10;5.70;;;4.17;;
27895;SDS011;15241;48.374;10.876;2023-02-23T15:37:17;3.87;;;3.42;;
27895;SDS011;15241;48.374;10.876;2023-02-23T15:42:20;5.87;;;3.47;;
27895;SDS011;15241;48.374;10.876;2023-02-23T15:47:21;4.78;;;3.30;;
27895;SDS011;15241;48.374;10.876;2023-02-23T15:52:22;6.60;;;3.00;;
27895;SDS011;15241;48.374;10.876;2023-02-23T15:57:26;4.70;;;3.20;;
27895;SDS011;15241;48.374;10.876;2023-02-23T16:02:28;7.03;;;3.42;;
27895;SDS011;15241;48.374;10.876;2023-02-23T16:07:34;7.42;;;3.65;;
27895;SDS011;15241;48.374;10.876;2023-02-23T16:12:34;6.72;;;3.83;;
27895;SDS011;15241;48.374;10.876;2023-02-23T16:17:38;6.28;;;4.03;;
27895;SDS011;15241;48.374;10.876;2023-02-23T16:22:39;5.87;;;3.80;;
27895;SDS011;15241;48.374;10.876;2023-02-23T16:27:40;5.53;;;3.92;;
27895;SDS011;15241;48.374;10.876;2023-02-23T16:32:41;9.88;;;4.05;;
27895;SDS011;15241;48.374;10.876;2023-02-23T16:37:48;7.87;;;4.50;;
27895;SDS011;15241;48.374;10.876;2023-02-23T16:42:50;9.85;;;5.40;;
27895;SDS011;15241;48.374;10.876;2023-02-23T16:47:50;8.43;;;5.22;;
27895;SDS011;15241;48.374;10.876;2023-02-23T16:52:50;10.23;;;5.00;;
27895;SDS011;15241;48.374;10.876;2023-02-23T16:57:50;10.05;;;4.80;;
27895;SDS011;15241;48.374;10.876;2023-02-23T17:02:50;11.30;;;5.22;;
27895;SDS011;15241;48.374;10.876;2023-02-23T17:07:49;11.43;;;5.22;;
27895;SDS011;15241;48.374;10.876;2023-02-23T17:12:49;9.20;;;4.95;;
27895;SDS011;15241;48.374;10.876;2023-02-23T17:17:49;14.13;;;8.85;;
27895;SDS011;15241;48.374;10.876;2023-02-23T17:22:48;12.25;;;8.48;;
27895;SDS011;15241;48.374;10.876;2023-02-23T17:27:47;12.70;;;7.42;;
27895;SDS011;15241;48.374;10.876;2023-02-23T17:32:47;15.10;;;6.78;;
27895;SDS011;15241;48.374;10.876;2023-02-23T17:37:47;11.63;;;5.95;;
27895;SDS011;15241;48.374;10.876;2023-02-23T17:42:46;8.63;;;5.60;;
27895;SDS011;15241;48.374;10.876;2023-02-23T17:47:45;11.25;;;5.40;;
27895;SDS011;15241;48.374;10.876;2023-02-23T17:52:44;8.73;;;5.55;;
27895;SDS011;15241;48.374;10.876;2023-02-23T17:57:43;11.33;;;5.67;;
27895;SDS011;15241;48.374;10.876;2023-02-23T18:02:43;10.23;;;6.15;;
27895;SDS011;15241;48.374;10.876;2023-02-23T18:07:42;12.05;;;5.92;;
27895;SDS011;15241;48.374;10.876;2023-02-23T18:12:40;14.33;;;6.03;;
27895;SDS011;15241;48.374;10.876;2023-02-23T18:17:39;11.20;;;6.42;;
27895;SDS011;15241;48.374;10.876;2023-02-23T18:22:38;11.75;;;6.78;;
27895;SDS011;15241;48.374;10.876;2023-02-23T18:27:37;20.50;;;9.43;;
27895;SDS011;15241;48.374;10.876;2023-02-23T18:32:36;19.48;;;9.95;;
27895;SDS011;15241;48.374;10.876;2023-02-23T18:37:35;15.48;;;8.95;;
27895;SDS011;15241;48.374;10.876;2023-02-23T18:42:34;17.00;;;10.93;;
27895;SDS011;15241;48.374;10.876;2023-02-23T18:47:33;17.65;;;10.90;;
27895;SDS011;15241;48.374;10.876;2023-02-23T18:52:32;17.27;;;10.10;;
27895;SDS011;15241;48.374;10.876;2023-02-23T18:57:31;19.15;;;10.18;;
27895;SDS011;15241;48.374;10.876;2023-02-23T19:02:29;17.62;;;9.98;;
27895;SDS011;15241;48.374;10.876;2023-02-23T19:07:29;16.77;;;9.68;;
27895;SDS011;15241;48.374;10.876;2023-02-23T19:12:28;16.65;;;10.28;;
27895;SDS011;15241;48.374;10.876;2023-02-23T19:17:28;19.80;;;10.43;;
27895;SDS011;15241;48.374;10.876;2023-02-23T19:22:27;22.05;;;13.48;;
27895;SDS011;15241;48.374;10.876;2023-02-23T19:27:27;21.42;;;10.90;;
27895;SDS011;15241;48.374;10.876;2023-02-23T19:32:26;22.37;;;11.68;;
27895;SDS011;15241;48.374;10.876;2023-02-23T19:37:25;24.07;;;13.05;;
27895;SDS011;15241;48.374;10.876;2023-02-23T19:42:24;21.93;;;13.20;;
27895;SDS011;15241;48.374;10.876;2023-02-23T19:47:23;20.12;;;12.35;;
27895;SDS011;15241;48.374;10.876;2023-02-23T19:52:22;17.75;;;11.35;;
27895;SDS011;15241;48.374;10.876;2023-02-23T19:57:21;18.23;;;11.90;;
27895;SDS011;15241;48.374;10.876;2023-02-23T20:02:19;18.52;;;10.93;;
27895;SDS011;15241;48.374;10.876;2023-02-23T20:07:18;19.40;;;11.65;;
27895;SDS011;15241;48.374;10.876;2023-02-23T20:12:18;14.95;;;10.60;;
27895;SDS011;15241;48.374;10.876;2023-02-23T20:17:16;19.82;;;10.58;;
27895;SDS011;15241;48.374;10.876;2023-02-23T20:22:15;19.37;;;10.23;;
27895;SDS011;15241;48.374;10.876;2023-02-23T20:27:14;17.40;;;9.75;;
27895;SDS011;15241;48.374;10.876;2023-02-23T20:32:13;20.12;;;10.35;;
27895;SDS011;15241;48.374;10.876;2023-02-23T20:37:13;20.10;;;11.28;;
27895;SDS011;15241;48.374;10.876;2023-02-23T20:42:11;19.25;;;10.93;;
27895;SDS011;15241;48.374;10.876;2023-02-23T20:47:11;18.52;;;10.88;;
27895;SDS011;15241;48.374;10.876;2023-02-23T20:52:10;16.40;;;11.45;;
27895;SDS011;15241;48.374;10.876;2023-02-23T20:57:09;17.12;;;11.33;;
27895;SDS011;15241;48.374;10.876;2023-02-23T21:02:09;19.20;;;10.35;;
27895;SDS011;15241;48.374;10.876;2023-02-23T21:07:08;17.02;;;11.18;;
27895;SDS011;15241;48.374;10.876;2023-02-23T21:12:08;20.00;;;11.40;;
27895;SDS011;15241;48.374;10.876;2023-02-23T21:17:07;18.52;;;12.58;;
27895;SDS011;15241;48.374;10.876;2023-02-23T21:22:06;19.82;;;11.78;;
27895;SDS011;15241;48.374;10.876;2023-02-23T21:27:05;18.82;;;12.03;;
27895;SDS011;15241;48.374;10.876;2023-02-23T21:32:04;17.05;;;11.28;;
27895;SDS011;15241;48.374;10.876;2023-02-23T21:37:04;17.12;;;11.15;;
27895;SDS011;15241;48.374;10.876;2023-02-23T21:42:03;19.40;;;11.45;;
27895;SDS011;15241;48.374;10.876;2023-02-23T21:47:02;16.70;;;10.98;;
27895;SDS011;15241;48.374;10.876;2023-02-23T21:52:01;15.58;;;10.78;;
27895;SDS011;15241;48.374;10.876;2023-02-23T21:57:00;15.30;;;9.83;;
27895;SDS011;15241;48.374;10.876;2023-02-23T22:01:59;12.75;;;9.13;;
27895;SDS011;15241;48.374;10.876;2023-02-23T22:06:58;15.60;;;9.30;;
27895;SDS011;15241;48.374;10.876;2023-02-23T22:11:57;16.27;;;10.88;;
27895;SDS011;15241;48.374;10.876;2023-02-23T22:16:56;16.52;;;9.93;;
27895;SDS011;15241;48.374;10.876;2023-02-23T22:21:55;15.53;;;9.00;;
27895;SDS011;15241;48.374;10.876;2023-02-23T22:26:54;20.17;;;9.10;;
27895;SDS011;15241;48.374;10.876;2023-02-23T22:31:53;17.62;;;9.00;;
27895;SDS011;15241;48.374;10.876;2023-02-23T22:36:52;11.80;;;8.73;;
27895;SDS011;15241;48.374;10.876;2023-02-23T22:41:51;14.45;;;8.80;;
27895;SDS011;15241;48.374;10.876;2023-02-23T22:46:50;12.60;;;8.18;;
27895;SDS011;15241;48.374;10.876;2023-02-23T22:51:49;13.68;;;8.48;;
27895;SDS011;15241;48.374;10.876;2023-02-23T22:56:47;13.43;;;7.90;;
27895;SDS011;15241;48.374;10.876;2023-02-23T23:01:46;14.38;;;9.08;;
27895;SDS011;15241;48.374;10.876;2023-02-23T23:06:45;14.15;;;9.70;;
27895;SDS011;15241;48.374;10.876;2023-02-23T23:11:44;14.55;;;9.65;;
27895;SDS011;15241;48.374;10.876;2023-02-23T23:16:44;16.97;;;9.15;;
27895;SDS011;15241;48.374;10.876;2023-02-23T23:21:43;14.98;;;9.38;;
27895;SDS011;15241;48.374;10.876;2023-02-23T23:26:42;12.78;;;8.85;;
27895;SDS011;15241;48.374;10.876;2023-02-23T23:31:41;11.93;;;8.20;;
27895;SDS011;15241;48.374;10.876;2023-02-23T23:36:41;14.28;;;8.08;;
27895;SDS011;15241;48.374;10.876;2023-02-23T23:41:41;11.95;;;8.20;;
27895;SDS011;15241;48.374;10.876;2023-02-23T23:46:41;13.95;;;7.30;;
27895;SDS011;15241;48.374;10.876;2023-02-23T23:51:42;12.23;;;7.45;;
27895;SDS011;15241;48.374;10.876;2023-02-23T23:56:42;11.83;;;7.25;;
